createdAt,value
2022-10-11T00:01:41.437Z,3.05
2022-10-11T00:03:43.261Z,3.35
2022-10-11T00:05:45.013Z,3.50
2022-10-11T00:07:46.699Z,2.85
2022-10-11T00:09:48.339Z,3.28
2022-10-11T00:11:50.075Z,3.42
2022-10-11T00:13:51.704Z,3.58
2022-10-11T00:15:53.937Z,2.97
2022-10-11T00:17:56.321Z,2.88
2022-10-11T00:19:58.100Z,3.53
2022-10-11T00:21:59.825Z,3.03
2022-10-11T00:24:01.447Z,3.00
2022-10-11T00:26:05.453Z,2.80
2022-10-11T00:28:07.489Z,3.08
2022-10-11T00:30:10.155Z,3.33
2022-10-11T00:32:11.881Z,3.13
2022-10-11T00:34:15.619Z,3.33
2022-10-11T00:36:18.895Z,2.97
2022-10-11T00:38:20.687Z,2.97
2022-10-11T00:40:22.372Z,3.55
2022-10-11T00:42:24.077Z,3.50
2022-10-11T00:44:27.359Z,3.72
2022-10-11T00:46:31.117Z,3.35
2022-10-11T00:48:45.501Z,3.13
2022-10-11T00:50:47.158Z,3.20
2022-10-11T00:52:54.673Z,3.38
2022-10-11T00:54:57.545Z,2.97
2022-10-11T00:57:05.012Z,2.72
2022-10-11T00:59:17.268Z,3.10
2022-10-11T01:01:19.066Z,3.42
2022-10-11T01:03:22.162Z,3.22
2022-10-11T01:05:29.757Z,3.25
2022-10-11T01:07:32.430Z,3.55
2022-10-11T01:09:34.275Z,3.03
2022-10-11T01:11:38.291Z,4.80
2022-10-11T01:14:03.122Z,4.50
2022-10-11T01:16:42.649Z,4.15
2022-10-11T01:18:48.869Z,4.80
2022-10-11T01:21:01.160Z,6.55
2022-10-11T01:23:41.402Z,5.97
2022-10-11T01:26:17.123Z,6.47
2022-10-11T01:28:26.870Z,9.00
2022-10-11T01:30:30.623Z,8.10
2022-10-11T01:32:47.328Z,9.50
2022-10-11T01:34:56.076Z,11.75
2022-10-11T01:37:25.720Z,12.68
2022-10-11T01:39:40.848Z,12.02
2022-10-11T01:41:47.212Z,11.88
2022-10-11T01:43:50.409Z,13.68
2022-10-11T01:45:53.649Z,13.73
2022-10-11T01:48:07.981Z,16.77
2022-10-11T01:50:40.406Z,15.73
2022-10-11T01:52:44.323Z,18.55
2022-10-11T01:55:11.997Z,18.13
2022-10-11T01:57:19.674Z,17.65
2022-10-11T01:59:48.153Z,16.27
2022-10-11T02:01:54.653Z,14.90
2022-10-11T02:04:28.971Z,14.40
2022-10-11T02:06:47.572Z,14.55
2022-10-11T02:09:09.462Z,13.13
2022-10-11T02:11:21.278Z,12.73
2022-10-11T02:13:33.365Z,13.70
2022-10-11T02:15:37.193Z,11.93
2022-10-11T02:17:46.788Z,11.07
2022-10-11T02:19:50.784Z,12.25
2022-10-11T02:21:57.166Z,9.93
2022-10-11T02:24:04.499Z,10.85
2022-10-11T02:26:07.353Z,9.75
2022-10-11T02:28:12.823Z,9.05
2022-10-11T02:30:15.442Z,8.57
2022-10-11T02:32:18.558Z,8.25
2022-10-11T02:34:29.228Z,6.93
2022-10-11T02:36:37.862Z,7.00
2022-10-11T02:38:45.387Z,6.45
2022-10-11T02:41:19.929Z,5.90
2022-10-11T02:43:29.985Z,6.68
2022-10-11T02:45:46.876Z,4.70
2022-10-11T02:47:48.718Z,5.75
2022-10-11T02:49:50.617Z,4.03
2022-10-11T02:51:52.270Z,4.22
2022-10-11T02:53:53.976Z,3.90
2022-10-11T02:55:56.039Z,3.25
2022-10-11T02:57:57.834Z,3.60
2022-10-11T02:59:59.443Z,3.97
2022-10-11T03:02:01.214Z,3.20
2022-10-11T03:04:03.030Z,3.35
2022-10-11T03:06:05.354Z,3.83
2022-10-11T03:08:12.193Z,3.63
2022-10-11T03:10:13.884Z,2.92
2022-10-11T03:12:15.580Z,2.38
2022-10-11T03:14:17.355Z,2.53
2022-10-11T03:16:19.091Z,3.10
2022-10-11T03:18:21.107Z,2.47
2022-10-11T03:20:23.770Z,2.50
2022-10-11T03:22:25.608Z,2.42
2022-10-11T03:24:27.291Z,2.90
2022-10-11T03:26:29.135Z,2.85
2022-10-11T03:28:30.941Z,2.83
2022-10-11T03:30:32.695Z,2.75
2022-10-11T03:32:34.643Z,2.13
2022-10-11T03:34:36.316Z,2.72
2022-10-11T03:36:37.953Z,2.83
2022-10-11T03:38:39.674Z,2.25
2022-10-11T03:40:42.592Z,2.40
2022-10-11T03:42:44.401Z,2.85
2022-10-11T03:44:46.081Z,2.25
2022-10-11T03:46:47.694Z,2.88
2022-10-11T03:48:49.318Z,2.42
2022-10-11T03:50:51.077Z,2.00
2022-10-11T03:52:52.731Z,2.47
2022-10-11T03:54:54.406Z,2.92
2022-10-11T03:56:58.250Z,2.85
2022-10-11T03:58:59.851Z,2.40
2022-10-11T04:01:01.452Z,2.85
2022-10-11T04:03:04.005Z,3.80
2022-10-11T04:05:06.549Z,3.10
2022-10-11T04:07:08.457Z,3.35
2022-10-11T04:09:10.082Z,2.72
2022-10-11T04:11:11.741Z,2.67
2022-10-11T04:13:13.581Z,2.47
2022-10-11T04:15:15.292Z,3.60
2022-10-11T04:17:17.054Z,2.38
2022-10-11T04:19:18.672Z,3.30
2022-10-11T04:21:20.354Z,2.65
2022-10-11T04:23:22.010Z,2.72
2022-10-11T04:25:23.754Z,3.58
2022-10-11T04:27:28.539Z,3.22
2022-10-11T04:29:32.706Z,3.30
2022-10-11T04:31:34.691Z,4.13
2022-10-11T04:33:36.387Z,2.17
2022-10-11T04:35:38.167Z,2.67
2022-10-11T04:37:40.135Z,2.97
2022-10-11T04:39:41.972Z,3.70
2022-10-11T04:41:43.591Z,2.97
2022-10-11T04:43:45.163Z,3.00
2022-10-11T04:45:46.837Z,3.13
2022-10-11T04:47:48.816Z,2.75
2022-10-11T04:49:50.437Z,2.80
2022-10-11T04:51:52.539Z,2.60
2022-10-11T04:53:54.257Z,3.63
2022-10-11T04:56:01.518Z,2.08
2022-10-11T04:58:03.500Z,1.92
2022-10-11T05:00:06.146Z,2.67
2022-10-11T05:02:07.886Z,2.58
2022-10-11T05:04:09.665Z,2.20
2022-10-11T05:06:11.752Z,2.40
2022-10-11T05:08:13.886Z,2.55
2022-10-11T05:10:15.691Z,2.25
2022-10-11T05:12:17.436Z,1.90
2022-10-11T05:14:19.218Z,2.08
2022-10-11T05:16:21.042Z,2.13
2022-10-11T05:18:22.998Z,2.17
2022-10-11T05:20:25.284Z,2.33
2022-10-11T05:22:27.147Z,2.22
2022-10-11T05:24:28.927Z,2.03
2022-10-11T05:26:30.932Z,1.92
2022-10-11T05:28:32.892Z,2.38
2022-10-11T05:30:34.640Z,2.13
2022-10-11T05:32:36.362Z,1.60
2022-10-11T05:34:38.064Z,2.33
2022-10-11T05:36:39.788Z,2.58
2022-10-11T05:38:41.775Z,2.55
2022-10-11T05:40:43.802Z,1.50
2022-10-11T05:42:45.549Z,2.20
2022-10-11T05:44:47.307Z,2.10
2022-10-11T05:46:49.060Z,2.63
2022-10-11T05:48:50.861Z,1.83
2022-10-11T05:50:53.305Z,2.05
2022-10-11T05:52:55.949Z,1.90
2022-10-11T05:54:58.151Z,1.67
2022-10-11T05:56:59.855Z,2.08
2022-10-11T05:59:02.562Z,3.67
2022-10-11T06:01:04.622Z,1.85
2022-10-11T06:03:08.365Z,2.03
2022-10-11T06:05:10.132Z,1.92
2022-10-11T06:07:11.940Z,2.05
2022-10-11T06:09:13.667Z,1.83
2022-10-11T06:11:18.210Z,2.22
2022-10-11T06:13:19.851Z,2.17
2022-10-11T06:15:24.617Z,1.45
2022-10-11T06:17:26.877Z,2.25
2022-10-11T06:19:28.650Z,1.30
2022-10-11T06:21:30.691Z,2.33
2022-10-11T06:23:32.761Z,2.33
2022-10-11T06:25:34.415Z,2.03
2022-10-11T06:27:36.872Z,1.73
2022-10-11T06:29:41.622Z,2.13
2022-10-11T06:31:43.483Z,2.30
2022-10-11T06:33:45.205Z,1.95
2022-10-11T06:35:46.952Z,1.92
2022-10-11T06:37:48.690Z,2.08
2022-10-11T06:39:51.645Z,2.63
2022-10-11T06:41:53.332Z,1.80
2022-10-11T06:43:55.837Z,2.40
2022-10-11T06:46:00.034Z,1.85
2022-10-11T06:48:02.140Z,1.60
2022-10-11T06:50:05.685Z,2.20
2022-10-11T06:52:07.347Z,1.80
2022-10-11T06:54:09.202Z,2.33
2022-10-11T06:56:13.010Z,2.47
2022-10-11T06:58:14.742Z,2.38
2022-10-11T07:00:16.806Z,2.15
2022-10-11T07:02:18.587Z,1.98
2022-10-11T07:04:20.215Z,2.00
2022-10-11T07:06:25.256Z,1.73
2022-10-11T07:08:26.979Z,2.40
2022-10-11T07:10:28.700Z,1.88
2022-10-11T07:12:30.373Z,2.45
2022-10-11T07:14:32.064Z,1.73
2022-10-11T07:16:36.718Z,2.08
2022-10-11T07:18:39.224Z,2.20
2022-10-11T07:20:41.239Z,3.50
2022-10-11T07:22:42.899Z,2.42
2022-10-11T07:24:44.649Z,2.30
2022-10-11T07:26:46.274Z,2.10
2022-10-11T07:28:48.038Z,2.33
2022-10-11T07:30:50.095Z,2.00
2022-10-11T07:32:51.774Z,2.95
2022-10-11T07:34:53.443Z,2.05
2022-10-11T07:36:55.089Z,2.10
2022-10-11T07:38:56.696Z,2.30
2022-10-11T07:40:58.483Z,2.30
2022-10-11T07:43:00.909Z,2.88
2022-10-11T07:45:03.088Z,2.42
2022-10-11T07:47:10.280Z,1.80
2022-10-11T07:49:12.939Z,1.80
2022-10-11T07:51:17.255Z,2.35
2022-10-11T07:53:19.074Z,1.40
2022-10-11T07:55:20.933Z,1.95
2022-10-11T07:57:22.582Z,2.13
2022-10-11T07:59:24.267Z,1.85
2022-10-11T08:01:27.225Z,1.65
2022-10-11T08:03:29.702Z,1.77
2022-10-11T08:05:31.885Z,2.95
2022-10-11T08:07:33.702Z,1.50
2022-10-11T08:09:35.343Z,2.90
2022-10-11T08:11:38.080Z,1.50
2022-10-11T08:13:39.714Z,1.80
2022-10-11T08:15:41.693Z,1.67
2022-10-11T08:17:43.435Z,1.63
2022-10-11T08:19:45.089Z,1.73
2022-10-11T08:21:46.833Z,2.33
2022-10-11T08:23:48.743Z,2.05
2022-10-11T08:25:50.488Z,1.70
2022-10-11T08:27:52.378Z,1.50
2022-10-11T08:29:54.002Z,1.90
2022-10-11T08:31:55.640Z,1.60
2022-10-11T08:33:57.515Z,1.90
2022-10-11T08:35:59.230Z,2.72
2022-10-11T08:38:00.839Z,2.40
2022-10-11T08:40:03.540Z,1.83
2022-10-11T08:42:07.981Z,2.28
2022-10-11T08:44:58.264Z,1.80
2022-10-11T08:47:19.842Z,1.58
2022-10-11T08:49:25.117Z,1.58
2022-10-11T08:51:37.967Z,1.50
2022-10-11T08:53:53.716Z,2.10
2022-10-11T08:55:55.578Z,1.83
2022-10-11T08:58:00.026Z,3.03
2022-10-11T09:00:12.987Z,1.77
2022-10-11T09:03:06.873Z,1.70
2022-10-11T09:05:05.038Z,2.47
2022-10-11T09:07:27.297Z,2.05
2022-10-11T09:09:55.830Z,1.80
2022-10-11T09:12:16.051Z,1.70
2022-10-11T09:14:47.112Z,2.08
2022-10-11T09:17:03.726Z,1.70
2022-10-11T09:19:40.784Z,2.40
2022-10-11T09:21:52.188Z,1.85
2022-10-11T09:24:20.119Z,1.48
2022-10-11T09:26:30.124Z,1.45
2022-10-11T09:29:01.778Z,1.70
2022-10-11T09:31:03.863Z,2.25
2022-10-11T09:33:56.325Z,1.73
2022-10-11T09:35:58.900Z,1.80
2022-10-11T09:38:19.614Z,2.08
2022-10-11T09:40:43.862Z,2.20
2022-10-11T09:42:45.726Z,2.50
2022-10-11T09:44:51.856Z,2.20
2022-10-11T09:46:55.585Z,1.90
2022-10-11T09:48:57.673Z,1.63
2022-10-11T09:51:04.116Z,1.73
2022-10-11T09:53:07.705Z,2.13
2022-10-11T09:55:30.673Z,2.00
2022-10-11T09:57:34.510Z,2.05
2022-10-11T09:59:36.359Z,1.10
2022-10-11T10:01:38.225Z,2.03
2022-10-11T10:03:44.140Z,2.00
2022-10-11T10:05:45.784Z,1.80
2022-10-11T10:08:23.616Z,1.77
2022-10-11T10:10:40.273Z,1.70
2022-10-11T10:12:42.000Z,2.00
2022-10-11T10:14:43.713Z,1.50
2022-10-11T10:16:45.383Z,1.67
2022-10-11T10:18:55.810Z,1.80
2022-10-11T10:20:59.730Z,2.20
2022-10-11T10:23:19.331Z,1.80
2022-10-11T10:25:43.255Z,1.48
2022-10-11T10:27:57.609Z,1.80
2022-10-11T10:30:04.687Z,2.08
2022-10-11T10:32:28.567Z,1.52
2022-10-11T10:34:32.947Z,1.40
2022-10-11T10:36:36.714Z,2.67
2022-10-11T10:38:57.265Z,2.15
2022-10-11T10:41:04.542Z,1.80
2022-10-11T10:43:06.213Z,1.60
2022-10-11T10:45:18.654Z,1.50
2022-10-11T10:47:25.627Z,1.20
2022-10-11T10:49:59.588Z,1.40
2022-10-11T10:52:10.174Z,1.20
2022-10-11T10:54:39.925Z,1.75
2022-10-11T10:56:56.578Z,1.75
2022-10-11T10:59:06.682Z,1.88
2022-10-11T11:01:11.228Z,1.23
2022-10-11T11:03:26.770Z,1.85
2022-10-11T11:05:31.706Z,2.10
2022-10-11T11:07:45.828Z,0.90
2022-10-11T11:09:59.463Z,0.90
2022-10-11T11:12:10.573Z,2.05
2022-10-11T11:14:48.894Z,1.30
2022-10-11T11:17:01.184Z,1.58
2022-10-11T11:19:39.824Z,1.25
2022-10-11T11:22:00.154Z,1.45
2022-10-11T11:24:20.622Z,1.48
2022-10-11T11:26:31.555Z,2.00
2022-10-11T11:29:04.265Z,1.38
2022-10-11T11:31:18.193Z,1.13
2022-10-11T11:33:38.432Z,1.55
2022-10-11T11:35:46.574Z,1.10
2022-10-11T11:37:51.893Z,1.73
2022-10-11T11:40:07.303Z,1.38
2022-10-11T11:42:36.441Z,1.38
2022-10-11T11:44:47.221Z,1.35
2022-10-11T11:47:11.991Z,1.20
2022-10-11T11:49:18.164Z,1.20
2022-10-11T11:51:34.100Z,1.52
2022-10-11T11:53:48.564Z,1.20
2022-10-11T11:55:59.178Z,1.45
2022-10-11T11:58:42.295Z,0.90
2022-10-11T12:00:52.059Z,1.35
2022-10-11T12:03:18.927Z,1.13
2022-10-11T12:05:27.731Z,0.98
2022-10-11T12:07:30.055Z,1.52
2022-10-11T12:09:33.275Z,1.13
2022-10-11T12:11:38.043Z,1.48
2022-10-11T12:13:42.483Z,1.13
2022-10-11T12:16:01.001Z,1.42
2022-10-11T12:18:06.294Z,0.93
2022-10-11T12:20:16.438Z,1.05
2022-10-11T12:22:27.266Z,1.33
2022-10-11T12:24:55.692Z,1.33
2022-10-11T12:27:01.377Z,0.88
2022-10-11T12:29:05.947Z,1.27
2022-10-11T12:31:25.436Z,0.85
2022-10-11T12:33:32.874Z,0.80
2022-10-11T12:35:34.528Z,0.90
2022-10-11T12:37:36.230Z,0.82
2022-10-11T12:39:43.737Z,0.70
2022-10-11T12:41:50.926Z,0.93
2022-10-11T12:44:12.771Z,1.60
2022-10-11T12:46:29.625Z,0.73
2022-10-11T12:49:19.023Z,0.98
2022-10-11T12:51:29.864Z,0.95
2022-10-11T12:54:21.902Z,0.70
2022-10-11T12:56:38.001Z,1.15
2022-10-11T12:58:43.933Z,1.00
2022-10-11T13:00:51.770Z,1.13
2022-10-11T13:02:54.109Z,1.00
2022-10-11T13:05:29.258Z,1.13
2022-10-11T13:07:31.428Z,1.02
2022-10-11T13:09:33.265Z,2.38
2022-10-11T13:11:39.293Z,1.13
2022-10-11T13:13:56.168Z,1.42
2022-10-11T13:15:59.535Z,1.30
2022-10-11T13:18:01.521Z,1.13
2022-10-11T13:20:12.707Z,2.78
2022-10-11T13:22:23.126Z,2.25
2022-10-11T13:24:26.113Z,1.90
2022-10-11T13:26:31.843Z,1.10
2022-10-11T13:28:36.610Z,1.83
2022-10-11T13:30:42.940Z,1.70
2022-10-11T13:32:44.882Z,1.20
2022-10-11T13:34:48.575Z,1.13
2022-10-11T13:36:55.942Z,1.67
2022-10-11T13:39:00.123Z,1.38
2022-10-11T13:41:10.332Z,1.02
2022-10-11T13:43:13.540Z,3.10
2022-10-11T13:45:19.178Z,1.52
2022-10-11T13:47:24.614Z,1.48
2022-10-11T13:49:29.249Z,2.90
2022-10-11T13:51:34.554Z,2.17
2022-10-11T13:53:36.201Z,1.40
2022-10-11T13:55:51.182Z,1.55
2022-10-11T13:57:53.316Z,1.30
2022-10-11T13:59:55.034Z,1.55
2022-10-11T14:02:00.772Z,1.17
2022-10-11T14:04:08.391Z,1.13
2022-10-11T14:06:10.421Z,1.20
2022-10-11T14:08:20.751Z,1.00
2022-10-11T14:10:23.095Z,1.23
2022-10-11T14:12:39.629Z,1.45
2022-10-11T14:14:42.536Z,1.88
2022-10-11T14:16:55.887Z,0.77
2022-10-11T14:19:00.107Z,1.40
2022-10-11T14:21:20.277Z,1.10
2022-10-11T14:23:21.973Z,1.60
2022-10-11T14:25:23.735Z,1.30
2022-10-11T14:27:28.070Z,1.20
2022-10-11T14:29:32.384Z,1.10
2022-10-11T14:31:37.883Z,1.17
2022-10-11T14:33:40.910Z,1.40
2022-10-11T14:35:43.661Z,1.73
2022-10-11T14:37:45.469Z,1.15
2022-10-11T14:39:51.011Z,1.02
2022-10-11T14:41:52.965Z,0.75
2022-10-11T14:43:56.462Z,1.10
2022-10-11T14:45:58.169Z,1.05
2022-10-11T14:47:59.882Z,1.10
2022-10-11T14:50:05.618Z,0.88
2022-10-11T14:52:08.200Z,0.82
2022-10-11T14:54:11.403Z,0.95
2022-10-11T14:56:16.682Z,1.10
2022-10-11T14:58:22.030Z,1.30
2022-10-11T15:00:26.522Z,1.35
2022-10-11T15:02:28.254Z,0.90
2022-10-11T15:04:30.013Z,0.95
2022-10-11T15:06:34.206Z,1.08
2022-10-11T15:08:36.017Z,1.38
2022-10-11T15:10:40.092Z,1.67
2022-10-11T15:12:41.738Z,1.20
2022-10-11T15:14:43.599Z,1.45
2022-10-11T15:16:45.639Z,1.40
2022-10-11T15:18:51.930Z,1.30
2022-10-11T15:20:55.124Z,1.23
2022-10-11T15:22:57.891Z,0.90
2022-10-11T15:25:00.356Z,1.52
2022-10-11T15:27:02.027Z,3.50
2022-10-11T15:29:03.968Z,3.17
2022-10-11T15:31:05.605Z,2.05
2022-10-11T15:33:07.323Z,2.28
2022-10-11T15:35:09.186Z,1.50
2022-10-11T15:37:10.814Z,2.10
2022-10-11T15:39:27.761Z,1.20
2022-10-11T15:41:29.395Z,2.22
2022-10-11T15:43:31.118Z,1.40
2022-10-11T15:45:33.006Z,1.33
2022-10-11T15:47:34.652Z,1.88
2022-10-11T15:49:36.283Z,1.30
2022-10-11T15:51:37.983Z,2.42
2022-10-11T15:53:39.811Z,1.17
2022-10-11T15:55:44.492Z,1.25
2022-10-11T15:57:46.178Z,1.50
2022-10-11T15:59:47.834Z,1.70
2022-10-11T16:01:49.641Z,1.30
2022-10-11T16:03:51.558Z,1.20
2022-10-11T16:05:54.015Z,1.30
2022-10-11T16:07:55.783Z,1.33
2022-10-11T16:09:57.662Z,1.30
2022-10-11T16:11:59.295Z,1.15
2022-10-11T16:14:00.977Z,0.95
2022-10-11T16:16:04.149Z,0.93
2022-10-11T16:18:07.399Z,1.33
2022-10-11T16:20:09.356Z,1.15
2022-10-11T16:22:11.092Z,1.30
2022-10-11T16:24:12.781Z,1.52
2022-10-11T16:26:16.615Z,1.15
2022-10-11T16:28:18.485Z,1.58
2022-10-11T16:30:20.609Z,1.85
2022-10-11T16:32:23.300Z,1.35
2022-10-11T16:34:25.034Z,1.50
2022-10-11T16:36:32.641Z,1.60
2022-10-11T16:38:34.283Z,1.33
2022-10-11T16:40:38.089Z,1.70
2022-10-11T16:42:39.727Z,1.45
2022-10-11T16:44:41.370Z,2.72
2022-10-11T16:46:47.784Z,1.77
2022-10-11T16:48:49.738Z,1.33
2022-10-11T16:50:51.555Z,1.73
2022-10-11T16:52:55.530Z,1.60
2022-10-11T16:54:57.208Z,1.38
2022-10-11T16:56:59.337Z,1.80
2022-10-11T16:59:01.256Z,1.88
2022-10-11T17:01:07.845Z,1.60
2022-10-11T17:03:09.608Z,2.05
2022-10-11T17:05:13.969Z,1.70
2022-10-11T17:07:15.712Z,1.50
2022-10-11T17:09:17.708Z,1.63
2022-10-11T17:11:20.203Z,1.60
2022-10-11T17:13:22.451Z,1.27
2022-10-11T17:15:26.155Z,1.92
2022-10-11T17:17:28.144Z,1.35
2022-10-11T17:19:29.938Z,1.92
2022-10-11T17:21:31.583Z,1.60
2022-10-11T17:23:35.002Z,2.28
2022-10-11T17:25:44.279Z,2.35
2022-10-11T17:27:45.907Z,2.80
2022-10-11T17:29:47.714Z,2.97
2022-10-11T17:31:49.600Z,5.15
2022-10-11T17:33:53.240Z,4.18
2022-10-11T17:35:56.212Z,4.43
2022-10-11T17:38:05.776Z,2.50
2022-10-11T17:40:11.252Z,1.75
2022-10-11T17:42:12.881Z,2.10
2022-10-11T17:44:17.601Z,2.88
2022-10-11T17:46:22.480Z,2.20
2022-10-11T17:48:24.500Z,2.72
2022-10-11T17:50:26.090Z,2.95
2022-10-11T17:52:27.709Z,4.13
2022-10-11T17:54:29.488Z,3.75
2022-10-11T17:56:36.594Z,3.63
2022-10-11T17:58:39.857Z,3.95
2022-10-11T18:00:41.635Z,3.20
2022-10-11T18:02:43.306Z,2.75
2022-10-11T18:04:45.139Z,2.22
2022-10-11T18:06:47.695Z,1.98
2022-10-11T18:08:49.425Z,1.67
2022-10-11T18:10:51.163Z,1.58
2022-10-11T18:12:54.387Z,1.67
2022-10-11T18:14:56.079Z,1.98
2022-10-11T18:16:57.783Z,2.00
2022-10-11T18:18:59.529Z,1.83
2022-10-11T18:21:01.419Z,2.50
2022-10-11T18:23:03.191Z,1.77
2022-10-11T18:25:05.134Z,2.30
2022-10-11T18:27:06.960Z,2.58
2022-10-11T18:29:09.331Z,2.38
2022-10-11T18:31:14.979Z,2.47
2022-10-11T18:33:18.021Z,2.42
2022-10-11T18:35:19.695Z,2.38
2022-10-11T18:37:21.655Z,2.53
2022-10-11T18:39:23.556Z,3.28
2022-10-11T18:41:31.825Z,2.38
2022-10-11T18:43:33.950Z,4.30
2022-10-11T18:45:35.717Z,2.83
2022-10-11T18:47:37.412Z,2.85
2022-10-11T18:49:39.148Z,2.88
2022-10-11T18:51:41.887Z,2.90
2022-10-11T18:53:47.099Z,4.40
2022-10-11T18:55:48.772Z,4.55
2022-10-11T18:57:50.708Z,5.38
2022-10-11T18:59:53.179Z,7.00
2022-10-11T19:01:54.821Z,8.23
2022-10-11T19:03:58.407Z,10.32
2022-10-11T19:06:08.757Z,10.00
2022-10-11T19:08:10.575Z,10.18
2022-10-11T19:10:15.041Z,8.75
2022-10-11T19:12:16.858Z,10.43
2022-10-11T19:14:21.656Z,10.57
2022-10-11T19:16:24.162Z,9.27
2022-10-11T19:18:25.795Z,7.28
2022-10-11T19:20:27.507Z,5.75
2022-10-11T19:22:29.143Z,5.28
2022-10-11T19:24:31.647Z,4.60
2022-10-11T19:26:35.992Z,3.65
2022-10-11T19:28:37.766Z,3.45
2022-10-11T19:30:39.512Z,3.78
2022-10-11T19:32:41.378Z,3.85
2022-10-11T19:34:43.077Z,3.58
2022-10-11T19:36:45.131Z,3.72
2022-10-11T19:38:49.299Z,3.83
2022-10-11T19:40:51.926Z,3.13
2022-10-11T19:42:53.625Z,3.75
2022-10-11T19:44:55.240Z,3.05
2022-10-11T19:46:58.291Z,2.85
2022-10-11T19:49:02.173Z,3.35
2022-10-11T19:51:05.512Z,3.75
2022-10-11T19:53:07.310Z,3.67
2022-10-11T19:55:09.593Z,3.63
2022-10-11T19:57:11.749Z,4.38
2022-10-11T19:59:14.529Z,5.68
2022-10-11T20:01:19.129Z,7.75
2022-10-11T20:03:20.884Z,7.18
2022-10-11T20:05:22.516Z,7.03
2022-10-11T20:07:24.223Z,7.13
2022-10-11T20:09:30.561Z,6.57
2022-10-11T20:11:32.728Z,6.18
2022-10-11T20:13:35.367Z,4.30
2022-10-11T20:15:39.881Z,3.78
2022-10-11T20:17:50.208Z,3.22
2022-10-11T20:19:52.835Z,2.60
2022-10-11T20:21:55.058Z,3.42
2022-10-11T20:23:59.672Z,4.10
2022-10-11T20:26:04.192Z,3.35
2022-10-11T20:28:06.118Z,3.65
2022-10-11T20:30:08.206Z,3.30
2022-10-11T20:32:10.002Z,3.20
2022-10-11T20:34:12.043Z,3.00
2022-10-11T20:36:24.467Z,3.55
2022-10-11T20:38:26.358Z,3.10
2022-10-11T20:40:27.967Z,3.92
2022-10-11T20:42:30.090Z,3.83
2022-10-11T20:44:31.838Z,4.53
2022-10-11T20:46:35.784Z,3.30
2022-10-11T20:48:38.410Z,5.82
2022-10-11T20:50:44.154Z,5.90
2022-10-11T20:52:45.748Z,4.97
2022-10-11T20:54:47.351Z,5.20
2022-10-11T20:56:48.966Z,4.20
2022-10-11T20:58:52.673Z,5.22
2022-10-11T21:00:54.310Z,5.47
2022-10-11T21:02:55.912Z,6.15
2022-10-11T21:04:57.509Z,6.18
2022-10-11T21:06:59.189Z,5.07
2022-10-11T21:09:01.898Z,4.03
2022-10-11T21:11:03.780Z,2.90
2022-10-11T21:13:05.503Z,4.18
2022-10-11T21:15:07.638Z,3.80
2022-10-11T21:17:09.327Z,3.50
2022-10-11T21:19:13.348Z,3.67
2022-10-11T21:21:15.003Z,2.85
2022-10-11T21:23:18.932Z,3.13
2022-10-11T21:25:20.789Z,2.75
2022-10-11T21:27:22.410Z,2.58
2022-10-11T21:29:24.081Z,3.53
2022-10-11T21:31:29.605Z,2.80
2022-10-11T21:33:35.042Z,3.35
2022-10-11T21:35:40.032Z,3.65
2022-10-11T21:37:41.660Z,3.13
2022-10-11T21:39:43.286Z,4.55
2022-10-11T21:41:44.870Z,3.47
2022-10-11T21:43:47.363Z,3.33
2022-10-11T21:45:49.144Z,2.60
2022-10-11T21:47:50.832Z,2.88
2022-10-11T21:49:52.424Z,2.78
2022-10-11T21:51:54.551Z,2.92
2022-10-11T21:53:57.580Z,2.70
2022-10-11T21:56:00.108Z,2.88
2022-10-11T21:58:01.676Z,2.50
2022-10-11T22:00:06.177Z,3.55
2022-10-11T22:02:07.843Z,4.15
2022-10-11T22:04:10.621Z,4.00
2022-10-11T22:06:12.553Z,4.50
2022-10-11T22:08:14.926Z,4.13
2022-10-11T22:10:16.631Z,5.05
2022-10-11T22:12:18.242Z,4.60
2022-10-11T22:14:19.876Z,3.75
2022-10-11T22:16:21.591Z,3.72
2022-10-11T22:18:28.876Z,3.78
2022-10-11T22:20:34.433Z,4.00
2022-10-11T22:22:36.356Z,3.75
2022-10-11T22:24:38.283Z,3.90
2022-10-11T22:26:39.991Z,4.25
2022-10-11T22:28:41.901Z,4.22
2022-10-11T22:30:43.604Z,3.58
2022-10-11T22:32:45.221Z,3.45
2022-10-11T22:34:46.834Z,3.60
2022-10-11T22:36:48.455Z,3.53
2022-10-11T22:38:51.234Z,2.95
2022-10-11T22:40:53.243Z,3.33
2022-10-11T22:42:54.828Z,3.63
2022-10-11T22:44:56.654Z,3.92
2022-10-11T22:46:58.290Z,3.33
2022-10-11T22:48:59.977Z,4.05
2022-10-11T22:51:02.089Z,3.55
2022-10-11T22:53:05.318Z,3.95
2022-10-11T22:55:07.294Z,3.53
2022-10-11T22:57:08.903Z,4.30
2022-10-11T22:59:10.597Z,3.40
2022-10-11T23:01:15.684Z,3.15
2022-10-11T23:03:18.434Z,3.13
2022-10-11T23:05:20.097Z,3.40
2022-10-11T23:07:21.716Z,2.60
2022-10-11T23:09:26.630Z,3.28
2022-10-11T23:11:28.250Z,3.35
2022-10-11T23:13:29.858Z,3.33
2022-10-11T23:15:31.477Z,2.78
2022-10-11T23:17:33.176Z,2.63
2022-10-11T23:19:34.787Z,3.72
2022-10-11T23:21:36.491Z,3.22
2022-10-11T23:23:39.800Z,3.78
2022-10-11T23:25:41.577Z,3.42
2022-10-11T23:27:43.194Z,3.00
2022-10-11T23:29:44.842Z,4.18
2022-10-11T23:31:47.117Z,3.53
2022-10-11T23:33:48.934Z,4.60
2022-10-11T23:35:50.618Z,4.50
2022-10-11T23:37:55.198Z,4.13
2022-10-11T23:39:56.862Z,3.65
2022-10-11T23:41:58.532Z,5.15
2022-10-11T23:44:00.170Z,4.00
2022-10-11T23:46:01.895Z,3.97
2022-10-11T23:48:03.668Z,4.32
2022-10-11T23:50:05.834Z,3.03
2022-10-11T23:52:07.537Z,3.35
2022-10-11T23:54:09.249Z,4.65
2022-10-11T23:56:11.562Z,3.15
2022-10-11T23:58:13.406Z,5.32
